createdAt,value
2022-08-03T00:02:39.592Z,20.51
2022-08-03T00:06:04.060Z,20.50
2022-08-03T00:09:07.589Z,20.50
2022-08-03T00:12:11.441Z,20.50
2022-08-03T00:15:17.125Z,20.50
2022-08-03T00:18:21.567Z,20.52
2022-08-03T00:21:25.332Z,20.49
2022-08-03T00:24:29.192Z,20.52
2022-08-03T00:27:32.923Z,20.49
2022-08-03T00:30:40.865Z,20.51
2022-08-03T00:33:59.533Z,20.49
2022-08-03T00:37:07.253Z,20.50
2022-08-03T00:40:12.835Z,20.50
2022-08-03T00:43:16.773Z,20.52
2022-08-03T00:46:22.448Z,20.52
2022-08-03T00:49:26.444Z,20.50
2022-08-03T00:52:30.293Z,20.52
2022-08-03T00:55:34.365Z,20.51
2022-08-03T00:58:38.757Z,20.52
2022-08-03T01:01:44.155Z,20.50
2022-08-03T01:04:48.077Z,20.49
2022-08-03T01:08:03.182Z,20.49
2022-08-03T01:11:13.193Z,20.49
2022-08-03T01:14:22.309Z,20.49
2022-08-03T01:17:38.701Z,20.49
2022-08-03T01:20:46.655Z,20.48
2022-08-03T01:24:08.230Z,20.48
2022-08-03T01:27:18.365Z,20.49
2022-08-03T01:30:28.647Z,20.48
2022-08-03T01:33:37.553Z,20.48
2022-08-03T01:36:45.729Z,20.49
2022-08-03T01:39:53.151Z,20.48
2022-08-03T01:43:01.577Z,20.47
2022-08-03T01:46:08.949Z,20.49
2022-08-03T01:49:14.597Z,20.48
2022-08-03T01:52:20.852Z,20.47
2022-08-03T01:55:28.328Z,20.46
2022-08-03T01:58:35.336Z,20.44
2022-08-03T02:02:31.752Z,20.45
2022-08-03T02:05:11.041Z,20.45
2022-08-03T02:08:17.394Z,20.44
2022-08-03T02:11:21.408Z,20.44
2022-08-03T02:14:25.829Z,20.44
2022-08-03T02:17:39.033Z,20.43
2022-08-03T02:20:45.629Z,20.44
2022-08-03T02:23:49.594Z,20.42
2022-08-03T02:26:56.954Z,20.43
2022-08-03T02:30:10.515Z,20.43
2022-08-03T02:33:21.058Z,20.43
2022-08-03T02:36:28.005Z,20.42
2022-08-03T02:39:37.566Z,20.43
2022-08-03T02:42:43.535Z,20.42
2022-08-03T02:45:50.432Z,20.43
2022-08-03T02:48:58.518Z,20.43
2022-08-03T02:52:05.881Z,20.43
2022-08-03T02:55:17.567Z,20.42
2022-08-03T02:58:22.360Z,20.41
2022-08-03T03:01:28.727Z,20.41
2022-08-03T03:04:35.064Z,20.40
2022-08-03T03:07:51.707Z,20.40
2022-08-03T03:10:57.665Z,20.41
2022-08-03T03:14:02.163Z,20.39
2022-08-03T03:17:07.711Z,20.40
2022-08-03T03:20:13.977Z,20.41
2022-08-03T03:23:19.676Z,20.40
2022-08-03T03:26:24.034Z,20.40
2022-08-03T03:29:28.252Z,20.39
2022-08-03T03:32:32.534Z,20.38
2022-08-03T03:35:38.839Z,20.38
2022-08-03T03:38:43.324Z,20.38
2022-08-03T03:41:47.448Z,20.37
2022-08-03T03:44:51.700Z,20.37
2022-08-03T03:47:55.955Z,20.38
2022-08-03T03:51:02.336Z,20.39
2022-08-03T03:54:07.405Z,20.37
2022-08-03T03:57:13.089Z,20.38
2022-08-03T04:00:19.592Z,20.36
2022-08-03T04:03:23.683Z,20.37
2022-08-03T04:06:46.845Z,20.35
2022-08-03T04:10:14.880Z,20.35
2022-08-03T04:13:22.166Z,20.36
2022-08-03T04:16:30.299Z,20.34
2022-08-03T04:19:39.737Z,20.36
2022-08-03T04:22:45.880Z,20.33
2022-08-03T04:25:52.779Z,20.33
2022-08-03T04:28:56.694Z,20.35
2022-08-03T04:32:03.168Z,20.33
2022-08-03T04:35:08.722Z,20.33
2022-08-03T04:38:16.819Z,20.34
2022-08-03T04:41:22.279Z,20.31
2022-08-03T04:44:28.921Z,20.30
2022-08-03T04:47:34.897Z,20.33
2022-08-03T04:50:39.053Z,20.33
2022-08-03T04:53:44.989Z,20.33
2022-08-03T04:56:48.744Z,20.32
2022-08-03T05:00:02.020Z,20.32
2022-08-03T05:03:23.574Z,20.32
2022-08-03T05:06:28.794Z,20.31
2022-08-03T05:09:50.117Z,20.31
2022-08-03T05:12:56.672Z,20.31
2022-08-03T05:16:00.465Z,20.31
2022-08-03T05:19:04.522Z,20.30
2022-08-03T05:22:08.315Z,20.30
2022-08-03T05:25:17.014Z,20.31
2022-08-03T05:28:22.962Z,20.30
2022-08-03T05:31:26.872Z,20.31
2022-08-03T05:34:30.657Z,20.31
2022-08-03T05:37:34.417Z,20.29
2022-08-03T05:40:41.044Z,20.31
2022-08-03T05:44:01.574Z,20.34
2022-08-03T05:47:05.381Z,20.40
2022-08-03T05:50:10.295Z,20.39
2022-08-03T05:53:14.078Z,20.40
2022-08-03T05:56:24.651Z,20.39
2022-08-03T05:59:38.220Z,20.41
2022-08-03T06:02:42.865Z,20.42
2022-08-03T06:06:00.093Z,20.41
2022-08-03T06:09:04.501Z,20.42
2022-08-03T06:12:13.932Z,20.42
2022-08-03T06:15:18.794Z,20.39
2022-08-03T06:18:24.053Z,20.41
2022-08-03T06:21:27.922Z,20.53
2022-08-03T06:24:31.840Z,20.64
2022-08-03T06:27:40.078Z,20.61
2022-08-03T06:30:43.765Z,20.60
2022-08-03T06:34:30.851Z,20.54
2022-08-03T06:37:12.061Z,20.50
2022-08-03T06:40:24.315Z,20.48
2022-08-03T06:43:29.889Z,20.50
2022-08-03T06:46:39.824Z,20.62
2022-08-03T06:49:43.707Z,21.55
2022-08-03T06:53:07.576Z,21.89
2022-08-03T06:56:11.391Z,22.67
2022-08-03T07:00:06.208Z,22.60
2022-08-03T07:02:40.869Z,22.51
2022-08-03T07:05:46.697Z,22.35
2022-08-03T07:08:52.941Z,22.15
2022-08-03T07:11:58.839Z,21.93
2022-08-03T07:15:05.798Z,21.72
2022-08-03T07:18:09.531Z,21.54
2022-08-03T07:21:13.320Z,21.40
2022-08-03T07:24:17.044Z,21.29
2022-08-03T07:27:20.789Z,21.17
2022-08-03T07:30:25.948Z,21.11
2022-08-03T07:33:29.734Z,21.06
2022-08-03T07:36:33.489Z,21.02
2022-08-03T07:39:38.216Z,20.98
2022-08-03T07:42:42.029Z,20.96
2022-08-03T07:45:47.108Z,20.92
2022-08-03T07:48:50.833Z,20.89
2022-08-03T07:52:08.427Z,20.89
2022-08-03T07:55:12.278Z,20.89
2022-08-03T07:58:21.983Z,20.89
2022-08-03T08:01:29.096Z,20.88
2022-08-03T08:04:32.861Z,20.87
2022-08-03T08:07:36.601Z,20.85
2022-08-03T08:10:40.422Z,20.87
2022-08-03T08:13:44.205Z,20.87
2022-08-03T08:16:49.722Z,20.87
2022-08-03T08:19:53.594Z,20.87
2022-08-03T08:23:00.270Z,20.87
2022-08-03T08:26:05.425Z,20.87
2022-08-03T08:29:09.250Z,20.86
2022-08-03T08:32:16.443Z,20.85
2022-08-03T08:35:20.789Z,20.84
2022-08-03T08:38:24.777Z,20.84
2022-08-03T08:41:32.134Z,20.83
2022-08-03T08:44:36.137Z,20.84
2022-08-03T08:47:50.862Z,20.83
2022-08-03T08:50:56.816Z,20.83
2022-08-03T08:54:04.253Z,20.83
2022-08-03T08:57:26.590Z,20.83
2022-08-03T09:00:32.694Z,20.83
2022-08-03T09:03:37.909Z,20.82
2022-08-03T09:06:50.212Z,20.82
2022-08-03T09:10:10.373Z,20.82
2022-08-03T09:13:17.140Z,20.83
2022-08-03T09:16:22.320Z,20.83
2022-08-03T09:19:27.542Z,20.84
2022-08-03T09:22:33.431Z,20.84
2022-08-03T09:25:39.579Z,20.84
2022-08-03T09:29:00.140Z,20.85
2022-08-03T09:32:06.614Z,20.85
2022-08-03T09:35:12.490Z,20.85
2022-08-03T09:38:17.589Z,20.84
2022-08-03T09:41:21.396Z,20.83
2022-08-03T09:44:35.565Z,20.83
2022-08-03T09:47:44.619Z,20.83
2022-08-03T09:50:58.775Z,20.84
2022-08-03T09:54:27.786Z,20.85
2022-08-03T09:57:31.992Z,20.84
2022-08-03T10:00:55.120Z,20.87
2022-08-03T10:04:03.570Z,20.87
2022-08-03T10:07:11.476Z,20.85
2022-08-03T10:10:29.105Z,20.84
2022-08-03T10:13:37.386Z,20.85
2022-08-03T10:16:41.673Z,20.85
2022-08-03T10:19:45.494Z,20.85
2022-08-03T10:22:50.788Z,20.88
2022-08-03T10:25:59.136Z,20.88
2022-08-03T10:29:12.381Z,20.88
2022-08-03T10:32:22.705Z,20.90
2022-08-03T10:35:27.281Z,20.91
2022-08-03T10:38:38.675Z,20.92
2022-08-03T10:41:46.382Z,20.91
2022-08-03T10:44:57.097Z,20.93
2022-08-03T10:48:01.823Z,20.91
2022-08-03T10:51:07.565Z,20.93
2022-08-03T10:55:03.218Z,20.94
2022-08-03T10:58:11.031Z,20.94
2022-08-03T11:01:15.177Z,20.94
2022-08-03T11:04:20.620Z,20.95
2022-08-03T11:07:26.939Z,20.94
2022-08-03T11:10:33.298Z,20.94
2022-08-03T11:13:37.127Z,20.93
2022-08-03T11:16:45.251Z,20.93
2022-08-03T11:19:57.749Z,20.93
2022-08-03T11:23:02.996Z,20.93
2022-08-03T11:26:16.239Z,20.94
2022-08-03T11:29:30.115Z,20.95
2022-08-03T11:32:54.150Z,20.96
2022-08-03T11:36:03.082Z,21.02
2022-08-03T11:39:17.054Z,21.10
2022-08-03T11:42:50.232Z,21.13
2022-08-03T11:45:59.383Z,21.17
2022-08-03T11:49:10.689Z,21.21
2022-08-03T11:52:15.208Z,21.25
2022-08-03T11:55:22.069Z,21.31
2022-08-03T11:59:16.885Z,21.36
2022-08-03T12:01:52.353Z,21.40
2022-08-03T12:04:58.744Z,21.45
2022-08-03T12:08:06.345Z,21.50
2022-08-03T12:11:13.045Z,21.56
2022-08-03T12:14:50.841Z,21.63
2022-08-03T12:17:43.795Z,21.67
2022-08-03T12:20:49.224Z,21.71
2022-08-03T12:23:59.058Z,21.76
2022-08-03T12:27:02.848Z,21.78
2022-08-03T12:30:09.355Z,21.82
2022-08-03T12:33:22.020Z,21.84
2022-08-03T12:36:26.069Z,21.88
2022-08-03T12:39:31.452Z,21.92
2022-08-03T12:42:37.107Z,21.88
2022-08-03T12:45:42.404Z,21.94
2022-08-03T12:49:03.700Z,21.93
2022-08-03T12:52:08.772Z,21.91
2022-08-03T12:55:20.907Z,21.91
2022-08-03T12:58:35.490Z,21.92
2022-08-03T13:01:49.131Z,21.93
2022-08-03T13:05:00.199Z,21.96
2022-08-03T13:08:04.167Z,21.99
2022-08-03T13:11:21.558Z,22.02
2022-08-03T13:14:25.402Z,22.05
2022-08-03T13:17:30.562Z,22.08
2022-08-03T13:20:34.935Z,22.09
2022-08-03T13:23:38.702Z,22.11
2022-08-03T13:26:42.476Z,22.13
2022-08-03T13:29:46.395Z,22.15
2022-08-03T13:32:51.538Z,22.17
2022-08-03T13:35:55.448Z,22.18
2022-08-03T13:38:59.190Z,22.21
2022-08-03T13:42:03.314Z,22.23
2022-08-03T13:45:09.221Z,22.26
2022-08-03T13:48:14.441Z,22.28
2022-08-03T13:51:38.305Z,22.31
2022-08-03T13:54:46.151Z,22.32
2022-08-03T13:58:04.379Z,22.34
2022-08-03T14:01:10.773Z,22.35
2022-08-03T14:04:21.882Z,22.37
2022-08-03T14:07:26.220Z,22.37
2022-08-03T14:10:30.216Z,22.37
2022-08-03T14:13:34.177Z,22.38
2022-08-03T14:16:38.584Z,22.36
2022-08-03T14:19:53.196Z,22.37
2022-08-03T14:22:57.855Z,22.38
2022-08-03T14:26:01.618Z,22.39
2022-08-03T14:29:05.996Z,22.40
2022-08-03T14:32:13.260Z,22.41
2022-08-03T14:35:18.740Z,22.44
2022-08-03T14:38:22.813Z,22.47
2022-08-03T14:41:26.703Z,22.48
2022-08-03T14:44:30.485Z,22.51
2022-08-03T14:47:34.591Z,22.53
2022-08-03T14:51:00.090Z,22.56
2022-08-03T14:54:03.856Z,22.59
2022-08-03T14:57:08.749Z,22.61
2022-08-03T15:00:13.702Z,22.63
2022-08-03T15:03:20.473Z,22.64
2022-08-03T15:06:26.021Z,22.63
2022-08-03T15:09:29.885Z,22.63
2022-08-03T15:12:33.808Z,22.64
2022-08-03T15:15:37.456Z,22.66
2022-08-03T15:18:41.240Z,22.68
2022-08-03T15:21:47.767Z,22.68
2022-08-03T15:24:51.759Z,22.68
2022-08-03T15:28:03.379Z,22.69
2022-08-03T15:31:08.402Z,22.72
2022-08-03T15:34:12.800Z,22.72
2022-08-03T15:37:18.041Z,22.72
2022-08-03T15:40:21.939Z,22.70
2022-08-03T15:43:26.221Z,22.70
2022-08-03T15:46:30.293Z,22.73
2022-08-03T15:49:34.391Z,22.75
2022-08-03T15:52:39.560Z,22.76
2022-08-03T15:55:43.845Z,22.79
2022-08-03T15:59:10.622Z,22.82
2022-08-03T16:02:11.648Z,22.84
2022-08-03T16:05:15.465Z,22.85
2022-08-03T16:08:20.673Z,22.88
2022-08-03T16:11:24.628Z,22.90
2022-08-03T16:14:32.671Z,22.91
2022-08-03T16:17:40.052Z,22.92
2022-08-03T16:20:44.853Z,22.93
2022-08-03T16:23:50.574Z,22.95
2022-08-03T16:26:55.291Z,22.95
2022-08-03T16:29:59.136Z,22.98
2022-08-03T16:33:03.002Z,23.01
2022-08-03T16:36:07.081Z,23.01
2022-08-03T16:39:12.307Z,23.04
2022-08-03T16:42:16.141Z,23.04
2022-08-03T16:45:19.948Z,23.07
2022-08-03T16:48:23.745Z,23.08
2022-08-03T16:51:27.571Z,23.10
2022-08-03T16:54:50.556Z,23.12
2022-08-03T16:58:00.047Z,23.13
2022-08-03T17:01:10.969Z,23.14
2022-08-03T17:04:27.254Z,23.16
2022-08-03T17:07:33.044Z,23.17
2022-08-03T17:10:38.910Z,23.19
2022-08-03T17:13:44.671Z,23.19
2022-08-03T17:16:52.701Z,23.18
2022-08-03T17:19:59.800Z,23.21
2022-08-03T17:23:35.473Z,23.21
2022-08-03T17:26:43.375Z,23.20
2022-08-03T17:29:50.404Z,23.17
2022-08-03T17:32:57.464Z,23.14
2022-08-03T17:36:01.967Z,23.11
2022-08-03T17:39:07.568Z,23.10
2022-08-03T17:42:29.499Z,23.09
2022-08-03T17:45:52.226Z,23.07
2022-08-03T17:48:59.199Z,23.07
2022-08-03T17:52:04.808Z,23.09
2022-08-03T17:55:54.800Z,23.17
2022-08-03T17:58:54.724Z,23.16
2022-08-03T18:02:30.329Z,23.03
2022-08-03T18:06:11.748Z,23.00
2022-08-03T18:09:05.121Z,23.02
2022-08-03T18:12:28.523Z,23.10
2022-08-03T18:15:39.032Z,23.11
2022-08-03T18:18:44.489Z,22.96
2022-08-03T18:22:03.031Z,22.92
2022-08-03T18:25:09.772Z,22.93
2022-08-03T18:28:18.891Z,22.92
2022-08-03T18:31:33.116Z,22.89
2022-08-03T18:34:53.531Z,22.87
2022-08-03T18:38:01.013Z,22.87
2022-08-03T18:41:07.082Z,22.85
2022-08-03T18:44:46.592Z,22.84
2022-08-03T18:48:05.042Z,22.84
2022-08-03T18:51:24.109Z,22.84
2022-08-03T18:54:57.273Z,22.83
2022-08-03T18:58:18.012Z,22.84
2022-08-03T19:01:59.581Z,22.82
2022-08-03T19:05:03.353Z,22.82
2022-08-03T19:08:16.460Z,22.82
2022-08-03T19:11:27.904Z,22.80
2022-08-03T19:14:41.630Z,22.80
2022-08-03T19:17:53.329Z,22.79
2022-08-03T19:20:59.846Z,22.79
2022-08-03T19:24:09.667Z,22.81
2022-08-03T19:27:15.859Z,22.91
2022-08-03T19:30:38.833Z,22.94
2022-08-03T19:33:56.056Z,22.94
2022-08-03T19:37:04.619Z,22.94
2022-08-03T19:40:12.468Z,22.96
2022-08-03T19:43:21.872Z,22.97
2022-08-03T19:46:30.849Z,22.95
2022-08-03T19:50:04.994Z,22.96
2022-08-03T19:53:11.772Z,22.97
2022-08-03T19:56:17.684Z,22.96
2022-08-03T19:59:23.592Z,22.96
2022-08-03T20:02:30.221Z,22.90
2022-08-03T20:05:44.851Z,22.84
2022-08-03T20:08:58.672Z,22.94
2022-08-03T20:12:02.891Z,22.96
2022-08-03T20:15:07.726Z,22.97
2022-08-03T20:18:16.906Z,22.96
2022-08-03T20:21:26.170Z,22.97
2022-08-03T20:24:36.223Z,22.83
2022-08-03T20:28:06.652Z,22.90
2022-08-03T20:31:08.651Z,22.78
2022-08-03T20:34:12.383Z,22.92
2022-08-03T20:37:21.452Z,22.78
2022-08-03T20:40:27.385Z,22.75
2022-08-03T20:43:31.563Z,22.75
2022-08-03T20:46:50.155Z,22.74
2022-08-03T20:49:59.530Z,22.73
2022-08-03T20:53:06.020Z,22.73
2022-08-03T20:56:11.299Z,22.82
2022-08-03T20:59:20.067Z,22.88
2022-08-03T21:02:29.602Z,22.96
2022-08-03T21:05:51.474Z,23.01
2022-08-03T21:09:03.847Z,23.04
2022-08-03T21:12:18.948Z,23.10
2022-08-03T21:16:02.402Z,23.15
2022-08-03T21:18:53.615Z,23.19
2022-08-03T21:21:58.973Z,23.22
2022-08-03T21:25:05.735Z,23.26
2022-08-03T21:28:11.348Z,23.31
2022-08-03T21:31:22.324Z,23.35
2022-08-03T21:34:31.404Z,23.39
2022-08-03T21:37:35.331Z,23.42
2022-08-03T21:40:39.710Z,23.45
2022-08-03T21:43:44.838Z,23.47
2022-08-03T21:46:51.703Z,23.49
2022-08-03T21:50:06.290Z,23.51
2022-08-03T21:53:13.170Z,23.51
2022-08-03T21:56:21.430Z,23.54
2022-08-03T21:59:26.956Z,23.55
2022-08-03T22:02:32.541Z,23.56
2022-08-03T22:05:43.529Z,23.57
2022-08-03T22:08:48.539Z,23.59
2022-08-03T22:11:54.254Z,23.61
2022-08-03T22:15:02.249Z,23.64
2022-08-03T22:18:07.754Z,23.65
2022-08-03T22:21:13.160Z,23.67
2022-08-03T22:24:19.931Z,23.68
2022-08-03T22:27:32.345Z,23.69
2022-08-03T22:30:38.462Z,23.70
2022-08-03T22:33:45.247Z,23.71
2022-08-03T22:36:49.061Z,23.70
2022-08-03T22:39:54.491Z,23.72
2022-08-03T22:42:58.616Z,23.75
2022-08-03T22:46:10.448Z,23.73
2022-08-03T22:49:17.512Z,23.69
2022-08-03T22:52:22.188Z,23.65
2022-08-03T22:55:26.127Z,23.58
2022-08-03T22:58:29.883Z,23.54
2022-08-03T23:01:39.322Z,23.49
2022-08-03T23:04:45.967Z,23.47
2022-08-03T23:07:51.963Z,23.42
2022-08-03T23:11:02.020Z,23.39
2022-08-03T23:14:10.010Z,23.37
2022-08-03T23:17:15.707Z,23.35
2022-08-03T23:20:20.382Z,23.32
2022-08-03T23:23:43.964Z,23.31
2022-08-03T23:26:49.125Z,23.28
2022-08-03T23:29:54.777Z,23.26
2022-08-03T23:33:02.317Z,23.24
2022-08-03T23:36:27.786Z,23.20
2022-08-03T23:39:31.516Z,23.18
2022-08-03T23:42:39.074Z,23.16
2022-08-03T23:45:46.135Z,23.15
2022-08-03T23:48:51.849Z,23.13
2022-08-03T23:52:07.487Z,23.12
2022-08-03T23:55:21.058Z,23.10
2022-08-03T23:58:39.615Z,23.09
